Wetter

Link zur aktuellen Windanzeige


Nordholz:

METAR:

2022/12/09 06:20 ETMN 090620Z 20005KT 9999 FEW014 M02/M02 Q1005 BLU+BLU+ BECMG WHT

TAF:

2022/12/09 06:43 TAF ETMN 090539Z 0906/0915 21005KT 9999 NSW SCT015 BECMG 0906/0908 21005KT 5000 BR FEW015 TEMPO 0908/0911 21005KT 0200 FZFG VV001

Wind EDXN:

09.12. 05:00z 220/07kt
09.12. 05:10z 220/07kt
09.12. 05:20z 200/08kt
09.12. 05:30z 200/08kt
09.12. 05:40z 200/08G12kt
09.12. 05:50z 210/06G10kt
09.12. 06:00z 210/05kt
09.12. 06:10z 190/06kt
09.12. 06:20z 190/06kt
09.12. 06:30z 190/07kt

Bremen:

METAR:

2022/12/09 06:20 EDDW 090620Z AUTO 14003KT 0900 0350 R09/1000D FZFG BKN027 M02/M02 Q1006 TEMPO 0600

TAF:

2022/12/09 06:27 TAF EDDW 090500Z 0906/1006 18004KT 7000 BKN020 PROB30 TEMPO 0906/0910 0600 FZFG OVC001 PROB40 TEMPO 0910/0918 BKN008 PROB30 TEMPO 0917/0923 0600 FZFG BECMG 0921/0924 OVC003 TEMPO 0923/1006 0500 FZFG OVC001

Hamburg:

METAR:

2022/12/09 06:20 EDDH 090620Z AUTO 22003KT 160V260 9000 OVC012 M00/M01 Q1006 TEMPO 3000 BR

TAF:

2022/12/09 06:27 TAF EDDH 090500Z 0906/1012 19005KT 6000 SCT010 TEMPO 0906/0910 3000 BR BKN007 PROB40 TEMPO 0906/0910 0600 FZFG OVC001 TEMPO 0910/0918 BKN006 PROB40 TEMPO 0910/0918 3000 BR BECMG 0918/0921 13003KT TEMPO 0918/0921 2000 BR BKN004 BECMG 0921/0924 3000 BR OVC003 TEMPO 0921/1006 0600 FZFG OVC001

Hannover:

METAR:

2022/12/09 06:20 EDDV 090620Z AUTO VRB01KT 6000 SCT020 M04/M05 Q1007 TEMPO 2000 BCFG

TAF:

2022/12/09 06:27 TAF TAF EDDV 090500Z 0906/1006 13003KT 6000 FEW020 PROB40 TEMPO 0906/0910 0600 FZFG BKN001 TEMPO 0910/0918 BKN008 PROB30 TEMPO 0917/0923 0600 FZFG BECMG 0921/0924 OVC004 TEMPO 0923/1006 0500 FZFG OVC001

Wikipedia Artikel: METARTAF

Daten von Aviation Weather Center der NOAA, es kann keine Garantie für Aktualität und Richtigkeit der Daten übernommen werden.

Die Nutzung dieser Daten zur Flugplanung ist nicht zulässig!

Inoffizielle ATIS 🙂